createdAt,value
2018-03-29T00:02:12.591Z,10.35
2018-03-29T00:04:40.912Z,11.27
2018-03-29T00:07:08.724Z,11.20
2018-03-29T00:09:37.417Z,11.33
2018-03-29T00:12:05.211Z,10.65
2018-03-29T00:14:33.464Z,10.20
2018-03-29T00:17:01.292Z,9.23
2018-03-29T00:19:29.017Z,9.27
2018-03-29T00:21:58.049Z,10.27
2018-03-29T00:24:25.761Z,9.67
2018-03-29T00:26:53.622Z,10.93
2018-03-29T00:29:22.114Z,10.20
2018-03-29T00:31:50.607Z,10.43
2018-03-29T00:34:18.547Z,11.37
2018-03-29T00:36:48.938Z,10.88
2018-03-29T00:39:19.601Z,11.03
2018-03-29T00:41:54.803Z,11.47
2018-03-29T00:44:22.515Z,10.90
2018-03-29T00:46:56.964Z,10.15
2018-03-29T00:49:26.674Z,10.43
2018-03-29T00:51:56.202Z,10.57
2018-03-29T00:54:24.554Z,10.00
2018-03-29T00:56:54.873Z,10.35
2018-03-29T00:59:23.846Z,11.55
2018-03-29T01:02:01.100Z,11.00
2018-03-29T01:04:28.860Z,10.80
2018-03-29T01:06:56.624Z,10.37
2018-03-29T01:09:24.340Z,9.63
2018-03-29T01:11:52.262Z,10.37
2018-03-29T01:14:20.211Z,10.50
2018-03-29T01:16:48.244Z,9.80
2018-03-29T01:19:16.010Z,10.80
2018-03-29T01:21:43.841Z,10.10
2018-03-29T01:24:11.545Z,10.10
2018-03-29T01:26:39.211Z,10.50
2018-03-29T01:29:06.872Z,10.60
2018-03-29T01:31:35.063Z,10.82
2018-03-29T01:34:02.760Z,10.23
2018-03-29T01:36:30.474Z,10.80
2018-03-29T01:38:58.086Z,10.52
2018-03-29T01:41:26.382Z,10.63
2018-03-29T01:43:54.301Z,9.90
2018-03-29T01:46:22.131Z,11.40
2018-03-29T01:48:49.981Z,10.50
2018-03-29T01:51:18.516Z,10.00
2018-03-29T01:53:46.229Z,11.00
2018-03-29T01:56:14.314Z,10.23
2018-03-29T01:58:42.118Z,10.40
2018-03-29T02:01:09.978Z,12.10
2018-03-29T02:03:37.696Z,10.50
2018-03-29T02:06:05.533Z,10.85
2018-03-29T02:08:33.201Z,10.57
2018-03-29T02:11:00.852Z,11.97
2018-03-29T02:13:28.550Z,10.30
2018-03-29T02:15:57.133Z,11.40
2018-03-29T02:18:25.730Z,11.07
2018-03-29T02:20:53.625Z,11.90
2018-03-29T02:23:21.603Z,10.50
2018-03-29T02:25:49.301Z,11.37
2018-03-29T02:28:17.815Z,11.70
2018-03-29T02:30:45.511Z,12.10
2018-03-29T02:33:13.355Z,11.93
2018-03-29T02:35:41.092Z,12.75
2018-03-29T02:38:08.954Z,12.75
2018-03-29T02:40:36.829Z,11.20
2018-03-29T02:43:04.634Z,11.83
2018-03-29T02:45:32.331Z,12.37
2018-03-29T02:48:00.974Z,13.03
2018-03-29T02:50:28.820Z,13.00
2018-03-29T02:52:56.570Z,12.17
2018-03-29T02:55:24.284Z,12.20
2018-03-29T02:57:52.074Z,11.80
2018-03-29T03:00:19.793Z,12.37
2018-03-29T03:02:47.410Z,12.80
2018-03-29T03:05:15.471Z,13.38
2018-03-29T03:07:44.210Z,12.32
2018-03-29T03:10:12.108Z,12.68
2018-03-29T03:12:39.699Z,12.60
2018-03-29T03:15:07.860Z,13.62
2018-03-29T03:17:35.495Z,13.33
2018-03-29T03:20:03.420Z,12.98
2018-03-29T03:22:31.233Z,12.98
2018-03-29T03:24:59.166Z,12.05
2018-03-29T03:27:28.132Z,12.30
2018-03-29T03:29:55.785Z,11.87
2018-03-29T03:32:23.680Z,12.60
2018-03-29T03:34:51.383Z,12.80
2018-03-29T03:37:20.057Z,13.38
2018-03-29T03:39:47.811Z,12.40
2018-03-29T03:42:15.710Z,12.37
2018-03-29T03:44:44.187Z,12.77
2018-03-29T03:47:13.665Z,14.95
2018-03-29T03:49:42.310Z,11.98
2018-03-29T03:52:10.222Z,11.75
2018-03-29T03:54:37.919Z,13.38
2018-03-29T03:57:07.221Z,13.90
2018-03-29T03:59:35.039Z,14.07
2018-03-29T04:02:02.719Z,13.63
2018-03-29T04:04:30.929Z,13.40
2018-03-29T04:06:58.654Z,14.57
2018-03-29T04:09:27.250Z,13.50
2018-03-29T04:11:55.923Z,14.33
2018-03-29T04:14:23.665Z,14.00
2018-03-29T04:16:52.301Z,14.70
2018-03-29T04:19:20.040Z,14.52
2018-03-29T04:21:48.531Z,14.50
2018-03-29T04:24:17.023Z,14.23
2018-03-29T04:26:45.840Z,14.27
2018-03-29T04:29:13.631Z,14.63
2018-03-29T04:31:41.648Z,14.67
2018-03-29T04:34:10.218Z,15.15
2018-03-29T04:36:39.100Z,14.98
2018-03-29T04:39:10.086Z,14.67
2018-03-29T04:41:37.864Z,13.85
2018-03-29T04:44:05.568Z,15.33
2018-03-29T04:46:33.351Z,14.93
2018-03-29T04:49:01.100Z,16.02
2018-03-29T04:51:28.872Z,15.35
2018-03-29T04:53:57.925Z,14.63
2018-03-29T04:56:25.668Z,14.90
2018-03-29T04:58:53.537Z,15.60
2018-03-29T05:04:02.150Z,14.97
2018-03-29T05:06:30.090Z,15.35
2018-03-29T05:08:57.972Z,16.20
2018-03-29T05:11:25.933Z,16.17
2018-03-29T05:13:54.292Z,13.50
2018-03-29T05:16:23.363Z,15.27
2018-03-29T05:18:54.392Z,16.00
2018-03-29T05:21:23.105Z,14.73
2018-03-29T05:23:50.924Z,15.77
2018-03-29T05:26:19.388Z,16.65
2018-03-29T05:28:48.211Z,15.05
2018-03-29T05:31:15.871Z,14.03
2018-03-29T05:33:43.698Z,14.32
2018-03-29T05:36:12.187Z,15.67
2018-03-29T05:38:40.862Z,15.95
2018-03-29T05:41:09.421Z,15.85
2018-03-29T05:43:37.968Z,15.15
2018-03-29T05:46:08.528Z,14.60
2018-03-29T05:48:36.543Z,15.10
2018-03-29T05:51:04.780Z,15.98
2018-03-29T05:53:32.861Z,16.02
2018-03-29T05:56:02.799Z,14.40
2018-03-29T05:58:30.911Z,13.93
2018-03-29T06:01:00.415Z,14.60
2018-03-29T06:03:28.257Z,12.60
2018-03-29T06:05:56.183Z,13.70
2018-03-29T06:08:25.172Z,13.13
2018-03-29T06:10:53.123Z,14.27
2018-03-29T06:13:21.092Z,13.00
2018-03-29T06:18:48.121Z,12.40
2018-03-29T06:21:16.367Z,14.03
2018-03-29T06:23:44.866Z,12.80
2018-03-29T06:26:13.409Z,13.60
2018-03-29T06:28:41.552Z,13.30
2018-03-29T06:31:10.201Z,13.43
2018-03-29T06:33:38.069Z,13.47
2018-03-29T06:36:06.993Z,13.53
2018-03-29T06:38:35.190Z,14.35
2018-03-29T06:41:04.323Z,15.00
2018-03-29T06:43:32.137Z,13.43
2018-03-29T06:45:59.939Z,14.20
2018-03-29T06:48:30.380Z,14.50
2018-03-29T06:50:59.949Z,14.18
2018-03-29T06:53:27.999Z,13.40
2018-03-29T06:55:55.756Z,15.33
2018-03-29T06:58:23.804Z,14.03
2018-03-29T07:00:52.595Z,13.20
2018-03-29T07:03:20.583Z,13.82
2018-03-29T07:05:48.414Z,12.67
2018-03-29T07:08:16.445Z,14.77
2018-03-29T07:10:44.674Z,15.00
2018-03-29T07:13:13.348Z,13.50
2018-03-29T07:15:41.431Z,13.90
2018-03-29T07:18:11.248Z,13.83
2018-03-29T07:20:39.318Z,14.40
2018-03-29T07:23:08.268Z,13.60
2018-03-29T07:25:37.106Z,13.27
2018-03-29T07:28:05.199Z,12.50
2018-03-29T07:30:33.347Z,12.83
2018-03-29T07:33:02.457Z,12.93
2018-03-29T07:35:30.247Z,12.00
2018-03-29T07:37:58.228Z,11.73
2018-03-29T07:40:26.109Z,13.10
2018-03-29T07:42:54.881Z,13.20
2018-03-29T07:45:22.858Z,13.13
2018-03-29T07:47:51.885Z,11.77
2018-03-29T07:50:19.860Z,12.37
2018-03-29T07:52:48.444Z,12.85
2018-03-29T07:55:17.442Z,11.67
2018-03-29T07:57:45.446Z,12.40
2018-03-29T08:00:14.918Z,11.70
2018-03-29T08:02:43.380Z,11.73
2018-03-29T08:05:12.243Z,12.20
2018-03-29T08:07:43.306Z,12.43
2018-03-29T08:10:11.834Z,12.37
2018-03-29T08:12:39.844Z,12.70
2018-03-29T08:15:10.131Z,11.50
2018-03-29T08:17:42.918Z,11.00
2018-03-29T08:20:12.474Z,11.67
2018-03-29T08:22:41.141Z,12.10
2018-03-29T08:25:09.352Z,12.50
2018-03-29T08:27:37.249Z,12.67
2018-03-29T08:30:05.078Z,12.00
2018-03-29T08:32:33.111Z,12.53
2018-03-29T08:35:01.829Z,10.00
2018-03-29T08:37:30.013Z,9.50
2018-03-29T08:39:58.063Z,7.07
2018-03-29T08:42:26.070Z,6.00
2018-03-29T08:44:55.628Z,6.50
2018-03-29T08:47:23.738Z,4.70
2018-03-29T08:49:51.882Z,5.20
2018-03-29T08:52:20.265Z,5.47
2018-03-29T08:54:49.540Z,5.60
2018-03-29T08:57:18.025Z,5.73
2018-03-29T08:59:47.210Z,5.83
2018-03-29T09:02:15.424Z,5.53
2018-03-29T09:04:43.516Z,6.53
2018-03-29T09:07:11.554Z,6.07
2018-03-29T09:09:41.479Z,5.63
2018-03-29T09:12:12.185Z,5.50
2018-03-29T09:14:56.973Z,5.20
2018-03-29T09:17:29.336Z,4.53
2018-03-29T09:19:57.820Z,5.50
2018-03-29T09:22:27.567Z,5.00
2018-03-29T09:24:56.009Z,5.17
2018-03-29T09:27:27.034Z,5.33
2018-03-29T09:29:55.417Z,5.20
2018-03-29T09:32:28.296Z,5.03
2018-03-29T09:34:59.987Z,6.03
2018-03-29T09:37:28.102Z,6.30
2018-03-29T09:39:57.031Z,6.27
2018-03-29T09:42:26.633Z,5.97
2018-03-29T09:44:55.254Z,6.33
2018-03-29T09:47:26.118Z,6.53
2018-03-29T09:49:55.392Z,6.00
2018-03-29T09:55:06.421Z,5.93
2018-03-29T09:57:34.442Z,5.17
2018-03-29T10:00:03.703Z,5.57
2018-03-29T10:02:31.723Z,5.20
2018-03-29T10:05:05.697Z,4.00
2018-03-29T10:07:35.351Z,3.73
2018-03-29T10:10:04.398Z,3.77
2018-03-29T10:12:34.067Z,3.80
2018-03-29T10:15:03.008Z,4.10
2018-03-29T10:17:51.748Z,3.20
2018-03-29T10:20:23.483Z,3.20
2018-03-29T10:22:55.022Z,2.47
2018-03-29T10:34:31.491Z,6.57
2018-03-29T10:37:04.367Z,4.18
2018-03-29T10:39:38.212Z,4.37
2018-03-29T10:42:07.402Z,4.50
2018-03-29T10:44:41.378Z,4.10
2018-03-29T10:47:11.963Z,4.17
2018-03-29T10:49:43.886Z,4.20
2018-03-29T10:52:12.721Z,3.70
2018-03-29T11:00:03.489Z,3.90
2018-03-29T11:02:40.101Z,3.60
2018-03-29T11:05:17.918Z,4.00
2018-03-29T11:07:46.923Z,4.23
2018-03-29T11:10:15.513Z,3.93
2018-03-29T11:12:45.797Z,3.93
2018-03-29T11:15:14.376Z,4.10
2018-03-29T11:17:48.493Z,4.50
2018-03-29T11:20:21.551Z,3.70
2018-03-29T11:22:51.456Z,3.40
2018-03-29T11:25:23.125Z,3.60
2018-03-29T11:27:56.297Z,3.03
2018-03-29T11:30:40.512Z,2.23
2018-03-29T11:33:10.172Z,2.83
2018-03-29T11:35:50.182Z,2.60
2018-03-29T11:38:40.516Z,2.87
2018-03-29T11:44:13.475Z,3.00
2018-03-29T11:49:55.740Z,3.20
2018-03-29T11:52:31.963Z,3.03
2018-03-29T12:22:14.054Z,2.20
2018-03-29T12:24:51.886Z,2.00
2018-03-29T12:30:41.102Z,1.20
2018-03-29T12:33:10.467Z,1.10
2018-03-29T12:35:39.447Z,1.20
2018-03-29T12:38:08.793Z,1.30
2018-03-29T12:40:39.316Z,1.30
2018-03-29T12:43:12.473Z,1.20
2018-03-29T12:45:43.883Z,1.00
2018-03-29T12:48:16.734Z,1.23
2018-03-29T12:50:50.972Z,1.27
2018-03-29T12:53:24.071Z,1.40
2018-03-29T12:56:15.346Z,1.67
2018-03-29T13:10:55.893Z,2.33
2018-03-29T13:13:31.839Z,2.90
2018-03-29T13:16:05.642Z,2.80
2018-03-29T13:18:37.884Z,2.77
2018-03-29T13:21:12.434Z,2.67
2018-03-29T13:23:43.058Z,2.93
2018-03-29T13:26:22.711Z,2.20
2018-03-29T13:28:59.701Z,2.20
2018-03-29T13:31:28.695Z,2.30
2018-03-29T13:33:59.883Z,2.30
2018-03-29T13:36:31.499Z,2.47
2018-03-29T13:39:00.964Z,1.57
2018-03-29T13:41:30.143Z,1.60
2018-03-29T13:44:04.948Z,1.90
2018-03-29T13:46:36.637Z,1.53
2018-03-29T13:49:09.050Z,1.90
2018-03-29T13:54:34.469Z,2.00
2018-03-29T13:57:06.211Z,2.07
2018-03-29T13:59:45.767Z,3.20
2018-03-29T14:02:16.303Z,4.20
2018-03-29T14:04:44.788Z,4.40
2018-03-29T14:07:13.657Z,4.63
2018-03-29T14:09:41.598Z,4.65
2018-03-29T14:12:11.181Z,4.80
2018-03-29T14:14:40.865Z,5.07
2018-03-29T14:17:10.151Z,6.10
2018-03-29T14:19:38.918Z,5.20
2018-03-29T14:22:09.395Z,5.70
2018-03-29T14:24:38.268Z,5.40
2018-03-29T14:27:07.251Z,5.90
2018-03-29T14:29:36.695Z,5.53
2018-03-29T14:32:04.696Z,5.47
2018-03-29T14:34:40.177Z,5.50
2018-03-29T14:37:09.685Z,5.17
2018-03-29T14:39:39.891Z,4.90
2018-03-29T14:42:10.630Z,4.37
2018-03-29T14:44:44.409Z,3.77
2018-03-29T14:47:17.117Z,4.60
2018-03-29T14:49:45.163Z,3.73
2018-03-29T14:52:13.071Z,4.10
2018-03-29T14:54:42.253Z,3.83
2018-03-29T14:57:12.266Z,3.40
2018-03-29T14:59:40.365Z,3.63
2018-03-29T15:02:10.176Z,4.10
2018-03-29T15:04:38.266Z,3.77
2018-03-29T15:07:06.113Z,3.57
2018-03-29T15:09:35.912Z,4.77
2018-03-29T15:12:05.017Z,4.20
2018-03-29T15:14:34.191Z,3.83
2018-03-29T15:17:02.757Z,3.60
2018-03-29T15:19:30.622Z,3.50
2018-03-29T15:21:59.964Z,3.70
2018-03-29T15:24:28.630Z,3.20
2018-03-29T15:26:57.266Z,3.67
2018-03-29T15:29:25.114Z,3.60
2018-03-29T15:31:53.565Z,3.83
2018-03-29T15:34:22.057Z,3.90
2018-03-29T15:36:50.647Z,4.00
2018-03-29T15:39:18.384Z,3.70
2018-03-29T15:41:46.059Z,4.07
2018-03-29T15:47:27.994Z,3.60
2018-03-29T15:49:55.763Z,3.40
2018-03-29T15:52:24.597Z,3.53
2018-03-29T15:54:52.516Z,3.27
2018-03-29T15:57:21.185Z,4.00
2018-03-29T15:59:49.720Z,4.10
2018-03-29T16:02:17.471Z,4.13
2018-03-29T16:04:45.281Z,3.87
2018-03-29T16:07:12.998Z,3.17
2018-03-29T16:09:41.751Z,4.30
2018-03-29T16:12:10.377Z,3.50
2018-03-29T16:14:39.835Z,4.20
2018-03-29T16:17:08.246Z,4.50
2018-03-29T16:19:36.250Z,3.90
2018-03-29T16:22:04.086Z,3.57
2018-03-29T16:24:32.950Z,4.20
2018-03-29T21:04:12.110Z,5.03
2018-03-29T21:06:40.080Z,5.13
2018-03-29T21:09:13.548Z,4.93
2018-03-29T21:14:14.713Z,5.17
2018-03-29T21:16:42.545Z,5.13
2018-03-29T21:19:16.813Z,5.40
2018-03-29T21:21:48.909Z,5.87
2018-03-29T21:24:17.370Z,5.43
2018-03-29T21:26:49.449Z,5.87
2018-03-29T21:29:18.861Z,5.93
2018-03-29T21:31:47.805Z,6.50
2018-03-29T21:34:16.296Z,6.13
2018-03-29T21:36:44.140Z,6.60
2018-03-29T21:39:13.314Z,5.50
2018-03-29T21:41:41.596Z,5.80
2018-03-29T21:44:09.961Z,5.83
2018-03-29T21:46:39.310Z,5.53
2018-03-29T21:49:11.805Z,4.95
2018-03-29T21:51:40.745Z,4.97
2018-03-29T21:54:10.223Z,4.33
2018-03-29T21:56:38.816Z,4.70
2018-03-29T21:59:07.795Z,4.40
2018-03-29T22:01:36.436Z,4.57
2018-03-29T22:04:04.772Z,4.47
2018-03-29T22:06:32.883Z,4.10
2018-03-29T22:09:01.530Z,4.50
2018-03-29T22:11:30.917Z,4.80
2018-03-29T22:13:59.272Z,5.03
2018-03-29T22:16:28.278Z,4.60
2018-03-29T22:18:56.564Z,4.63
2018-03-29T22:21:26.285Z,4.57
2018-03-29T22:23:55.775Z,4.83
2018-03-29T22:26:31.899Z,4.70
2018-03-29T22:29:07.563Z,4.53
2018-03-29T22:31:37.579Z,5.17
2018-03-29T22:34:07.096Z,4.60
2018-03-29T22:36:36.276Z,4.93
2018-03-29T22:39:11.126Z,4.90
2018-03-29T22:41:41.633Z,4.87
2018-03-29T22:44:11.525Z,4.70
2018-03-29T22:46:39.474Z,4.70
2018-03-29T22:49:07.481Z,4.93
2018-03-29T22:51:36.172Z,4.70
2018-03-29T22:54:06.201Z,4.77
2018-03-29T22:56:34.764Z,5.07
2018-03-29T22:59:02.630Z,4.37
2018-03-29T23:01:31.642Z,4.33
2018-03-29T23:04:01.258Z,5.13
2018-03-29T23:06:30.383Z,4.63
2018-03-29T23:08:58.331Z,4.80
2018-03-29T23:11:26.701Z,4.20
2018-03-29T23:16:30.004Z,4.60
2018-03-29T23:19:03.866Z,4.53
2018-03-29T23:21:40.236Z,4.10
2018-03-29T23:24:08.464Z,4.50
2018-03-29T23:26:36.494Z,4.73
2018-03-29T23:29:04.605Z,5.40
2018-03-29T23:31:32.618Z,4.47
2018-03-29T23:34:01.012Z,5.03
2018-03-29T23:36:30.910Z,4.60
2018-03-29T23:38:59.221Z,4.90
2018-03-29T23:41:27.122Z,4.73
2018-03-29T23:44:00.133Z,4.95
2018-03-29T23:46:29.331Z,4.80
2018-03-29T23:48:57.206Z,4.97
2018-03-29T23:51:25.587Z,5.03
2018-03-29T23:53:57.641Z,5.20
2018-03-29T23:56:26.786Z,4.93
2018-03-29T23:58:56.335Z,5.20
